Passos Maia, Brazil
Current Conditions -  °F | °C
As of 11:00 AM on Thursday 30 Oct 2014 (Local Time) from SBCH Reporting Station
Broken Clouds Broken Clouds  
Wind Chill: 70°   Ceiling: 4300
Heat Index: 70°   Visibility: 6mi
Dew Point: 61°   Wind: 21mph
Humidity: 73%   Direction: 120°ESE
Pressure: 29.83"   Gusts: NA
Location:  26.78°S, 52.06°W
Report Text: SBCH 301300Z 12018KT 9999 BKN043 FEW047TCU 21/16 Q1010
Loading
Personal Weather Stations






























Interactive Weather Map
Tropical Storm Tracking
New forecast layout! Learn more

10-Day Weather Forecast

Advertisements
Track Severe Weather on mobile